Time;durP1;ratioP1;P1;durP2;ratioP2;P2;SDS_P1;SDS_P2;PMS_P1;PMS_P2;Temp;Humidity;BMP_temperature;BMP_pressure;BME280_temperature;BME280_humidity;BME280_pressure;Samples;Min_cycle;Max_cycle;Signal;HPM_P1;HPM_P2
2022/03/22 00:00:07;;;;;;;57.70;28.60;;;;;;;8.71;67.72;102994.16;4935105;28;20036;-77
2022/03/22 00:02:33;;;;;;;58.92;28.73;;;;;;;8.72;67.80;103003.94;4950557;28;20066;-77
2022/03/22 00:04:58;;;;;;;59.70;28.48;;;;;;;8.69;67.81;102996.09;4957175;28;20054;-78
2022/03/22 00:07:24;;;;;;;60.25;28.50;;;;;;;8.69;68.08;102990.75;4959513;28;20224;-78
2022/03/22 00:09:49;;;;;;;60.95;28.70;;;;;;;8.69;68.49;102991.63;4964391;28;20027;-78
2022/03/22 00:12:14;;;;;;;67.47;30.13;;;;;;;8.69;68.55;102996.09;4954398;28;20053;-77
2022/03/22 00:14:40;;;;;;;62.40;29.80;;;;;;;8.67;68.89;102996.25;4959935;28;20023;-78
2022/03/22 00:17:05;;;;;;;62.13;29.60;;;;;;;8.67;68.56;102998.06;4966464;28;20063;-79
2022/03/22 00:19:31;;;;;;;59.70;29.17;;;;;;;8.66;69.25;102996.34;4955376;28;20034;-77
2022/03/22 00:21:56;;;;;;;59.63;28.90;;;;;;;8.65;68.72;102990.13;4950799;29;20027;-77
2022/03/22 00:24:22;;;;;;;63.00;29.73;;;;;;;8.67;68.50;102990.03;4955931;28;20107;-80
2022/03/22 00:26:47;;;;;;;61.28;29.25;;;;;;;8.66;68.53;102999.03;4950485;28;20035;-77
2022/03/22 00:29:12;;;;;;;68.35;29.73;;;;;;;8.63;68.83;102999.28;4950277;28;20417;-78
2022/03/22 00:31:39;;;;;;;60.83;29.02;;;;;;;8.64;69.18;102998.31;4951221;29;20050;-78
2022/03/22 00:34:04;;;;;;;61.40;28.67;;;;;;;8.66;68.64;102996.34;4950781;29;20024;-77
2022/03/22 00:36:32;;;;;;;59.30;28.73;;;;;;;8.73;68.49;103000.28;4951998;29;20051;-78
2022/03/22 00:38:57;;;;;;;65.35;29.60;;;;;;;8.71;68.82;102996.84;4950721;28;20158;-77
2022/03/22 00:41:22;;;;;;;62.40;28.88;;;;;;;8.71;69.06;102995.03;4950504;28;20277;-79
2022/03/22 00:43:47;;;;;;;66.22;30.73;;;;;;;8.71;69.21;103004.91;4950931;28;20372;-78
2022/03/22 00:46:13;;;;;;;60.97;29.08;;;;;;;8.79;69.20;103002.50;4949229;29;20529;-78
2022/03/22 00:48:39;;;;;;;71.50;29.23;;;;;;;8.91;68.56;103000.72;4950298;29;20487;-77
2022/03/22 00:51:04;;;;;;;70.05;30.67;;;;;;;8.85;68.87;103007.41;4950470;28;20162;-78
2022/03/22 00:53:29;;;;;;;56.63;30.48;;;;;;;8.78;69.15;103008.84;4948902;29;20647;-78
2022/03/22 00:55:55;;;;;;;73.07;33.45;;;;;;;8.84;69.16;103005.69;4949118;29;20039;-78
2022/03/22 00:58:20;;;;;;;62.42;31.40;;;;;;;8.88;69.22;103001.81;4948802;28;20046;-78
2022/03/22 01:00:47;;;;;;;66.78;32.55;;;;;;;8.79;69.30;102994.44;4950095;28;20037;-78
2022/03/22 01:03:13;;;;;;;72.35;33.00;;;;;;;8.71;69.55;103004.91;4950095;28;20487;-78
2022/03/22 01:05:38;;;;;;;72.10;32.22;;;;;;;8.66;70.19;103001.72;4949920;29;20031;-79
2022/03/22 01:08:08;;;;;;;65.55;31.80;;;;;;;8.62;69.94;103006.47;4949203;28;20376;-79
2022/03/22 01:10:38;;;;;;;68.45;32.22;;;;;;;8.55;70.72;102989.09;4948328;29;20055;-79
2022/03/22 01:13:04;;;;;;;67.43;33.05;;;;;;;8.51;70.92;102999.22;4942120;28;20039;-79
2022/03/22 01:15:34;;;;;;;65.85;32.67;;;;;;;8.53;70.94;102991.94;4949453;29;20043;-79
2022/03/22 01:18:05;;;;;;;66.22;31.27;;;;;;;8.52;71.11;102992.88;4949243;28;20033;-78
2022/03/22 01:20:35;;;;;;;71.47;32.63;;;;;;;8.51;70.89;102993.88;4950040;28;20497;-78
2022/03/22 01:23:05;;;;;;;72.47;33.60;;;;;;;8.41;71.42;102982.09;4949765;28;20474;-79
2022/03/22 01:25:32;;;;;;;73.90;33.97;;;;;;;8.38;72.07;102987.69;4949197;28;20046;-77
2022/03/22 01:27:58;;;;;;;72.77;34.10;;;;;;;8.38;72.38;102993.03;4949672;28;20414;-77
2022/03/22 01:30:24;;;;;;;69.53;33.80;;;;;;;8.38;72.53;102986.81;4949850;28;20491;-77
2022/03/22 01:32:51;;;;;;;73.00;32.78;;;;;;;8.36;72.46;102995.81;4949742;28;20422;-77
2022/03/22 01:35:18;;;;;;;70.90;33.83;;;;;;;8.35;72.55;102986.06;4952148;28;20121;-78
2022/03/22 01:37:44;;;;;;;64.47;31.65;;;;;;;8.35;72.71;102982.53;5005919;28;20471;-77
2022/03/22 01:40:10;;;;;;;68.40;32.97;;;;;;;8.32;72.64;102982.75;4950199;28;20082;-77
2022/03/22 01:42:36;;;;;;;71.35;33.97;;;;;;;8.29;72.83;102977.63;4949916;28;20130;-78
2022/03/22 01:45:02;;;;;;;63.45;32.33;;;;;;;8.25;73.20;102981.50;4949777;28;20135;-78
2022/03/22 01:47:28;;;;;;;69.18;32.53;;;;;;;8.23;73.18;102983.44;4948715;28;20134;-77
2022/03/22 01:49:53;;;;;;;80.15;33.20;;;;;;;8.22;73.39;102981.75;4948280;29;20038;-77
2022/03/22 01:52:22;;;;;;;72.13;31.58;;;;;;;8.22;73.46;102979.06;4950058;28;20526;-77
2022/03/22 01:54:51;;;;;;;72.05;33.72;;;;;;;8.19;73.52;102971.22;4950743;28;20043;-78
2022/03/22 01:57:21;;;;;;;67.78;33.42;;;;;;;8.17;73.38;102970.50;4949594;28;20035;-77
2022/03/22 01:59:46;;;;;;;68.05;33.70;;;;;;;8.14;73.46;102972.44;4949672;29;20035;-77
2022/03/22 02:07:42;;;;;;;71.88;35.15;;;;;;;8.12;74.22;102965.47;4948183;29;20122;-78
2022/03/22 02:10:07;;;;;;;66.93;33.00;;;;;;;8.14;74.45;102967.06;4949008;28;20032;-76
2022/03/22 02:12:33;;;;;;;82.55;35.83;;;;;;;8.20;73.93;102964.91;4949305;28;20085;-78
2022/03/22 02:14:58;;;;;;;74.80;35.65;;;;;;;8.24;74.18;102955.63;4949197;28;20037;-79
2022/03/22 02:17:23;;;;;;;83.50;36.55;;;;;;;8.25;74.02;102960.91;4949228;28;20027;-77
2022/03/22 02:19:49;;;;;;;73.43;35.15;;;;;;;8.24;73.65;102953.84;4949152;29;20024;-79
2022/03/22 02:22:18;;;;;;;80.18;35.17;;;;;;;8.30;73.75;102960.56;4949130;28;20031;-76
2022/03/22 02:24:44;;;;;;;73.38;34.20;;;;;;;8.36;73.43;102952.06;4950701;28;20023;-77
2022/03/22 02:27:10;;;;;;;85.00;37.22;;;;;;;8.37;73.09;102953.75;4952307;28;20423;-79
2022/03/22 02:29:36;;;;;;;72.47;36.17;;;;;;;8.35;73.08;102958.41;4952391;28;20023;-78
2022/03/22 02:32:02;;;;;;;78.35;36.47;;;;;;;8.35;73.57;102955.72;4950623;28;20058;-77
2022/03/22 02:34:28;;;;;;;83.45;37.00;;;;;;;8.33;73.53;102953.13;4952043;28;20062;-79
2022/03/22 02:36:53;;;;;;;73.43;36.40;;;;;;;8.36;73.56;102952.91;4952458;29;20058;-80
2022/03/22 02:39:19;;;;;;;77.90;37.05;;;;;;;8.50;73.45;102953.72;4952566;29;20027;-77
2022/03/22 02:41:45;;;;;;;81.53;36.88;;;;;;;8.51;73.02;102948.25;4952433;28;20072;-78
2022/03/22 02:44:10;;;;;;;74.07;35.47;;;;;;;8.57;73.06;102950.44;4951775;28;20243;-78
2022/03/22 02:46:39;;;;;;;91.63;37.63;;;;;;;8.63;72.95;102951.81;4951946;29;20331;-78
2022/03/22 02:49:06;;;;;;;77.35;36.33;;;;;;;8.62;72.93;102947.41;4951880;29;20142;-78
2022/03/22 02:51:31;;;;;;;75.95;35.83;;;;;;;8.56;73.60;102953.25;4952166;28;20081;-79
2022/03/22 02:53:57;;;;;;;80.82;37.67;;;;;;;8.56;73.91;102962.16;4951886;28;20426;-79
2022/03/22 02:56:22;;;;;;;77.93;37.35;;;;;;;8.55;74.33;102952.38;4954983;28;20502;-79
2022/03/22 02:58:47;;;;;;;78.35;37.47;;;;;;;8.53;74.04;102950.78;4951727;28;20035;-79
2022/03/22 03:01:13;;;;;;;80.90;35.92;;;;;;;8.50;73.84;102948.34;4951316;28;20039;-79
2022/03/22 03:03:38;;;;;;;78.07;38.53;;;;;;;8.48;73.98;102953.84;4952066;28;20027;-79
2022/03/22 03:06:04;;;;;;;81.47;39.30;;;;;;;8.42;74.29;102954.28;5009499;22;20059;-42
2022/03/22 03:08:29;;;;;;;76.28;36.85;;;;;;;8.45;74.54;102956.78;4954807;28;20106;-43
2022/03/22 03:10:55;;;;;;;81.78;38.40;;;;;;;8.44;74.93;102955.03;4961639;28;20038;-43
2022/03/22 03:13:20;;;;;;;87.55;39.03;;;;;;;8.44;74.77;102952.34;4970868;28;20027;-43
2022/03/22 03:15:46;;;;;;;78.40;37.30;;;;;;;8.45;74.80;102951.41;4966579;28;20073;-43
2022/03/22 03:18:13;;;;;;;84.47;39.13;;;;;;;8.45;74.48;102950.53;4970346;28;20034;-42
2022/03/22 03:20:38;;;;;;;78.40;37.38;;;;;;;8.40;74.26;102950.88;4971045;28;20027;-41
2022/03/22 03:23:04;;;;;;;86.13;37.80;;;;;;;8.39;74.79;102954.53;4970556;28;20027;-43
2022/03/22 03:25:30;;;;;;;76.30;38.28;;;;;;;8.34;74.22;102949.47;4970251;28;20042;-42
2022/03/22 03:27:55;;;;;;;88.15;38.08;;;;;;;8.36;75.04;102952.06;4969274;28;20540;-43
2022/03/22 03:30:20;;;;;;;76.90;37.42;;;;;;;8.36;75.38;102954.72;4969938;28;20046;-43
2022/03/22 03:32:46;;;;;;;82.85;39.58;;;;;;;8.34;75.35;102951.31;4969934;28;20034;-43
2022/03/22 03:35:11;;;;;;;78.10;38.08;;;;;;;8.31;74.88;102956.91;4969478;28;20504;-43
2022/03/22 03:37:37;;;;;;;77.35;37.45;;;;;;;8.29;75.08;102953.47;4970405;28;20513;-43
2022/03/22 03:40:03;;;;;;;83.75;38.97;;;;;;;8.26;74.75;102946.50;4969665;28;20084;-43
2022/03/22 03:42:29;;;;;;;83.28;36.55;;;;;;;8.26;75.12;102953.72;4977037;28;20085;-43
2022/03/22 03:47:38;;;;;;;87.45;40.78;;;;;;;8.27;75.70;102953.59;4970490;28;20089;-42
2022/03/22 03:50:05;;;;;;;82.60;38.65;;;;;;;8.28;75.90;102954.47;4969226;28;20517;-43
2022/03/22 03:52:33;;;;;;;90.10;37.90;;;;;;;8.30;75.82;102958.72;4970186;28;20034;-42
2022/03/22 03:55:00;;;;;;;77.35;38.13;;;;;;;8.29;75.54;102958.84;4969875;28;20030;-42
2022/03/22 03:57:26;;;;;;;78.78;38.97;;;;;;;8.30;75.65;102964.09;4970060;28;20039;-43
2022/03/22 03:59:53;;;;;;;76.97;39.38;;;;;;;8.27;75.58;102963.50;4969610;28;20433;-43
2022/03/22 04:02:18;;;;;;;79.80;37.67;;;;;;;8.30;75.08;102965.94;4968819;28;20038;-43
2022/03/22 04:04:44;;;;;;;91.45;39.72;;;;;;;8.33;74.87;102968.38;4969675;28;20152;-43
2022/03/22 04:07:11;;;;;;;83.47;38.25;;;;;;;8.25;75.00;102960.91;4956976;28;20043;-43
2022/03/22 04:09:37;;;;;;;88.80;39.33;;;;;;;8.19;75.41;102974.78;4950524;28;20019;-43
2022/03/22 04:12:03;;;;;;;77.57;37.22;;;;;;;8.13;75.35;102973.38;4950239;28;20034;-43
2022/03/22 04:14:29;;;;;;;79.60;39.05;;;;;;;8.15;75.77;102978.66;4950324;28;20119;-43
2022/03/22 04:16:57;;;;;;;78.65;38.70;;;;;;;8.10;75.88;102972.78;4950545;28;20521;-42
2022/03/22 04:19:23;;;;;;;82.72;39.13;;;;;;;8.10;76.48;102970.09;4950743;28;20046;-44
2022/03/22 04:21:49;;;;;;;84.57;39.85;;;;;;;8.11;76.74;102972.66;4949967;28;20092;-42
2022/03/22 04:24:15;;;;;;;83.85;40.22;;;;;;;8.15;76.94;102973.28;4949707;28;20541;-41
2022/03/22 04:26:44;;;;;;;81.20;38.08;;;;;;;8.14;76.99;102975.13;4949061;28;20031;-42
2022/03/22 04:34:40;;;;;;;76.68;37.67;;;;;;;8.18;76.48;102970.38;4948861;28;20105;-43
2022/03/22 04:37:07;;;;;;;79.28;37.80;;;;;;;8.17;76.51;102968.66;4950282;28;20478;-43
2022/03/22 04:39:33;;;;;;;80.20;37.50;;;;;;;8.07;76.27;102968.47;4950083;28;20476;-43
2022/03/22 04:42:00;;;;;;;84.90;40.17;;;;;;;8.03;76.95;102972.38;4950207;29;20019;-42
2022/03/22 04:44:28;;;;;;;85.57;40.78;;;;;;;8.03;77.29;102966.13;4948404;29;20478;-43
2022/03/22 04:46:54;;;;;;;79.88;37.75;;;;;;;8.01;77.44;102968.94;4944018;28;20088;-42
2022/03/22 04:49:20;;;;;;;81.07;39.97;;;;;;;8.01;77.70;102971.63;4949972;28;20390;-43
2022/03/22 04:57:13;;;;;;;78.68;38.75;;;;;;;8.05;77.89;102969.56;4949798;28;20041;-43
2022/03/22 04:59:38;;;;;;;82.18;38.83;;;;;;;8.03;78.10;102982.22;4949860;28;20027;-42
2022/03/22 05:02:04;;;;;;;84.97;41.05;;;;;;;8.01;78.16;102978.81;4948358;28;20114;-43
2022/03/22 05:04:29;;;;;;;82.32;39.88;;;;;;;8.01;78.40;102977.00;4950014;28;20092;-42
2022/03/22 05:06:55;;;;;;;93.05;39.78;;;;;;;7.99;78.46;102972.72;4949257;28;20051;-42
2022/03/22 05:09:22;;;;;;;85.05;40.15;;;;;;;8.01;77.90;102982.34;4949718;28;20062;-42
2022/03/22 05:11:49;;;;;;;81.95;39.03;;;;;;;7.92;77.20;102985.69;4949458;28;20047;-42
2022/03/22 05:14:14;;;;;;;85.63;38.60;;;;;;;7.79;78.48;102982.19;4950030;28;20103;-44
2022/03/22 05:16:40;;;;;;;79.18;37.67;;;;;;;7.81;78.27;102994.53;4947974;29;20398;-42
2022/03/22 05:19:06;;;;;;;92.13;39.08;;;;;;;7.78;78.35;102983.19;4948258;28;20067;-42
2022/03/22 05:21:32;;;;;;;79.82;39.00;;;;;;;7.79;78.64;102995.59;4948164;28;20031;-43
2022/03/22 05:23:58;;;;;;;82.00;39.55;;;;;;;7.87;78.07;102982.50;4946944;28;20034;-44
2022/03/22 05:26:26;;;;;;;84.00;39.60;;;;;;;7.84;78.92;102994.28;4952855;28;20031;-43
2022/03/22 05:28:52;;;;;;;;;;;;;;;7.81;78.99;102985.63;4948797;28;20043;-45
2022/03/22 05:31:18;;;;;;;82.88;38.40;;;;;;;7.80;78.90;102994.66;4948108;28;19919;-43
2022/03/22 05:33:44;;;;;;;90.95;39.22;;;;;;;7.79;79.16;102998.28;4948756;28;20031;-44
2022/03/22 05:36:09;;;;;;;81.22;38.88;;;;;;;7.81;78.98;103007.06;4935498;28;20034;-42
2022/03/22 05:38:35;;;;;;;84.63;38.10;;;;;;;7.80;79.04;103005.38;4949381;28;20086;-42
2022/03/22 05:41:02;;;;;;;88.85;38.53;;;;;;;7.81;80.03;102999.88;4949101;28;20035;-43
2022/03/22 05:43:27;;;;;;;78.15;38.47;;;;;;;7.83;79.60;103003.31;4964180;28;20024;-43
2022/03/22 05:45:53;;;;;;;84.88;39.90;;;;;;;7.84;79.54;103001.50;4948491;28;20069;-43
2022/03/22 05:48:19;;;;;;;80.50;38.92;;;;;;;7.84;79.21;103001.50;4948908;28;20453;-42
2022/03/22 05:50:44;;;;;;;79.13;38.95;;;;;;;7.84;79.82;102998.81;4949195;28;20509;-42
2022/03/22 05:53:10;;;;;;;89.40;41.33;;;;;;;7.87;79.59;102998.59;4948697;28;20039;-43
2022/03/22 05:55:36;;;;;;;86.15;40.85;;;;;;;7.86;79.15;103008.44;4949082;28;20536;-43
2022/03/22 05:58:02;;;;;;;85.10;40.88;;;;;;;7.88;79.17;103005.69;4951361;28;20348;-43
2022/03/22 06:00:28;;;;;;;82.22;38.33;;;;;;;7.91;79.01;103003.63;4952416;28;20031;-43
2022/03/22 06:02:53;;;;;;;93.05;39.90;;;;;;;7.93;78.81;103000.84;4952160;28;20031;-43
2022/03/22 06:05:18;;;;;;;99.07;41.40;;;;;;;7.95;79.02;103006.91;4952503;28;20027;-43
2022/03/22 06:07:44;;;;;;;92.72;39.88;;;;;;;7.95;79.32;103009.59;4950659;28;20051;-43
2022/03/22 06:10:12;;;;;;;88.43;38.92;;;;;;;7.99;79.74;103007.56;4951826;29;20077;-43
2022/03/22 06:12:41;;;;;;;79.85;38.80;;;;;;;8.02;79.70;103016.25;4950627;29;20043;-43
2022/03/22 06:15:17;;;;;;;83.15;40.17;;;;;;;8.08;79.65;103014.94;4958017;28;20039;-42
2022/03/22 06:17:49;;;;;;;82.38;39.53;;;;;;;8.18;79.18;103013.28;4980601;28;20378;-43
2022/03/22 06:20:17;;;;;;;81.85;39.72;;;;;;;8.22;79.11;103019.31;4951826;28;20027;-43
2022/03/22 06:22:44;;;;;;;82.80;39.05;;;;;;;8.27;78.70;103020.66;4950188;28;20122;-44
2022/03/22 06:25:09;;;;;;;80.28;38.65;;;;;;;8.35;78.24;103022.78;4951867;28;20084;-42
2022/03/22 06:27:35;;;;;;;85.50;39.35;;;;;;;8.34;78.00;103026.44;4951898;28;20027;-43
2022/03/22 06:30:09;;;;;;;84.22;38.65;;;;;;;8.39;78.56;103029.66;4950186;28;20101;-43
2022/03/22 06:32:42;;;;;;;76.03;38.75;;;;;;;8.52;78.23;103027.78;4949906;28;20028;-44
2022/03/22 06:35:11;;;;;;;89.55;39.65;;;;;;;8.62;77.93;103030.63;4951985;28;20106;-43
2022/03/22 06:37:37;;;;;;;75.80;36.85;;;;;;;8.85;77.01;103028.03;4951325;29;20065;-43
2022/03/22 06:40:05;;;;;;;82.88;36.90;;;;;;;9.07;76.44;103036.16;4951560;28;20035;-43
2022/03/22 06:42:30;;;;;;;83.35;37.78;;;;;;;9.26;75.92;103038.25;4957716;28;20123;-43
2022/03/22 06:44:56;;;;;;;81.90;38.33;;;;;;;9.44;74.87;103031.44;4952200;28;20567;-45
2022/03/22 06:47:23;;;;;;;90.75;38.70;;;;;;;9.64;73.91;103035.25;4946500;28;20023;-43
2022/03/22 06:49:48;;;;;;;81.22;37.95;;;;;;;9.97;73.28;103038.88;4949267;28;20505;-43
2022/03/22 06:52:13;;;;;;;90.70;36.80;;;;;;;10.22;72.98;103043.16;4941487;28;20019;-43
2022/03/22 06:54:39;;;;;;;76.68;36.38;;;;;;;10.59;71.32;103037.44;4951991;28;20036;-44
2022/03/22 06:57:05;;;;;;;70.65;36.08;;;;;;;10.95;70.17;103044.25;4951241;29;20340;-44
2022/03/22 06:59:30;;;;;;;78.38;37.03;;;;;;;11.14;68.68;103050.78;4951254;28;20035;-45
2022/03/22 07:01:56;;;;;;;86.38;37.50;;;;;;;11.31;67.97;103054.69;4951332;28;20038;-42
2022/03/22 07:04:21;;;;;;;73.20;37.40;;;;;;;11.61;66.80;103049.34;4950562;28;20035;-43
2022/03/22 07:06:46;;;;;;;69.15;36.35;;;;;;;11.59;66.36;103045.06;4949990;29;20130;-45
2022/03/22 07:09:12;;;;;;;79.72;36.67;;;;;;;11.53;65.89;103051.84;4951245;28;20055;-43
2022/03/22 07:11:55;;;;;;;68.57;34.17;;;;;;;11.89;65.56;103052.31;4951769;28;20035;-44
2022/03/22 07:14:24;;;;;;;66.57;34.47;;;;;;;12.13;64.82;103056.50;4951348;28;20115;-43
2022/03/22 07:16:50;;;;;;;62.90;35.10;;;;;;;12.38;63.79;103050.59;4951549;28;20038;-43
2022/03/22 07:19:22;;;;;;;70.93;35.28;;;;;;;12.28;62.60;103047.88;4984119;28;20339;-42
2022/03/22 07:21:48;;;;;;;67.32;34.28;;;;;;;12.46;63.07;103052.59;4976487;28;20039;-44
2022/03/22 07:24:15;;;;;;;68.43;35.15;;;;;;;13.24;60.90;103050.69;4951442;28;20042;-44
2022/03/22 07:26:42;;;;;;;63.08;34.00;;;;;;;13.74;60.79;103053.13;4951593;28;20402;-43
2022/03/22 07:29:08;;;;;;;59.45;33.60;;;;;;;14.53;57.30;103059.84;4951125;28;20145;-45
2022/03/22 07:31:37;;;;;;;58.38;32.50;;;;;;;15.22;55.73;103060.09;4951111;28;20493;-43
2022/03/22 07:34:07;;;;;;;61.83;33.22;;;;;;;15.56;53.95;103062.88;4950343;28;20360;-44
2022/03/22 07:36:33;;;;;;;57.45;33.17;;;;;;;16.32;51.77;103064.75;4949170;28;20039;-44
2022/03/22 07:39:00;;;;;;;65.28;33.92;;;;;;;17.04;49.13;103059.63;4942911;28;20047;-43
2022/03/22 07:41:26;;;;;;;76.60;32.83;;;;;;;16.64;50.17;103064.00;4942685;29;20035;-42
2022/03/22 07:43:54;;;;;;;54.85;31.70;;;;;;;17.08;48.18;103071.00;4949345;28;20408;-41
2022/03/22 07:46:19;;;;;;;;;;;;;;;17.33;47.15;103069.94;4935491;28;20035;-40
2022/03/22 07:48:45;;;;;;;61.35;33.47;;;;;;;17.14;47.44;103073.06;4948698;28;19971;-40
2022/03/22 07:53:54;;;;;;;55.63;33.22;;;;;;;17.24;46.27;103065.53;4950424;28;20598;-41
2022/03/22 07:56:19;;;;;;;57.63;32.20;;;;;;;18.11;45.61;103076.53;4949712;28;20035;-41
2022/03/22 07:58:44;;;;;;;52.65;30.02;;;;;;;18.32;43.90;103064.16;4948600;29;20406;-41
2022/03/22 08:01:10;;;;;;;53.10;32.17;;;;;;;17.82;45.42;103070.88;4949430;28;20593;-41
2022/03/22 08:03:35;;;;;;;49.03;30.63;;;;;;;17.22;45.77;103064.00;4950556;28;20383;-41
2022/03/22 08:06:00;;;;;;;55.33;32.00;;;;;;;17.84;44.67;103071.56;4950960;28;20051;-41
2022/03/22 08:08:26;;;;;;;62.88;32.05;;;;;;;18.02;44.04;103069.44;4949305;28;20160;-41
2022/03/22 08:10:51;;;;;;;50.75;31.35;;;;;;;19.00;42.87;103070.72;4948483;29;20059;-42
2022/03/22 08:13:17;;;;;;;57.60;30.73;;;;;;;18.90;42.86;103073.69;4950557;28;20071;-42
2022/03/22 08:15:42;;;;;;;59.10;31.08;;;;;;;18.51;42.85;103080.09;4953291;28;20027;-43
2022/03/22 08:18:09;;;;;;;56.92;30.48;;;;;;;18.60;43.10;103079.00;4953827;29;20024;-42
2022/03/22 08:20:34;;;;;;;57.13;32.28;;;;;;;18.64;43.62;103085.78;4947311;29;20065;-42
2022/03/22 08:23:04;;;;;;;48.67;32.45;;;;;;;18.67;42.92;103083.72;4951827;29;20124;-41
2022/03/22 08:25:36;;;;;;;56.47;31.92;;;;;;;18.56;42.34;103084.97;4952617;28;20153;-42
2022/03/22 08:28:03;;;;;;;54.20;31.02;;;;;;;18.76;42.81;103079.94;4953165;28;20038;-42
2022/03/22 08:30:29;;;;;;;59.40;32.05;;;;;;;19.25;42.93;103082.25;4950172;29;20481;-42
2022/03/22 08:33:00;;;;;;;54.22;31.38;;;;;;;20.50;39.99;103089.66;4950165;28;20497;-42
2022/03/22 08:35:26;;;;;;;54.83;31.25;;;;;;;19.69;39.74;103092.41;4949806;29;20050;-42
2022/03/22 08:37:53;;;;;;;54.60;31.40;;;;;;;19.26;40.91;103100.34;4950116;29;20429;-42
2022/03/22 08:40:19;;;;;;;50.45;30.38;;;;;;;18.89;41.45;103093.81;4949723;28;20286;-42
2022/03/22 08:42:46;;;;;;;55.38;32.70;;;;;;;19.53;40.83;103102.44;4946110;28;20034;-43
2022/03/22 08:45:22;;;;;;;50.78;30.83;;;;;;;20.47;39.54;103104.56;4946712;29;20031;-42
2022/03/22 08:47:49;;;;;;;48.33;29.15;;;;;;;21.47;37.23;103100.09;4950312;28;20030;-43
2022/03/22 08:50:19;;;;;;;53.13;30.25;;;;;;;21.52;37.35;103100.34;4949252;28;20500;-42
2022/03/22 08:52:49;;;;;;;53.33;30.55;;;;;;;22.54;35.54;103102.34;4949135;28;20046;-43
2022/03/22 08:55:17;;;;;;;55.40;30.38;;;;;;;21.47;36.67;103102.81;4947372;28;20069;-43
2022/03/22 08:57:44;;;;;;;51.58;29.95;;;;;;;21.52;38.06;103096.75;4949257;28;20059;-43
2022/03/22 09:00:10;;;;;;;47.38;29.55;;;;;;;22.20;36.13;103105.19;4950070;29;20050;-42
2022/03/22 09:02:37;;;;;;;51.42;29.48;;;;;;;22.09;37.18;103104.66;4948045;29;20040;-42
2022/03/22 09:07:47;;;;;;;42.17;26.25;;;;;;;22.36;35.11;103110.28;4947093;28;20345;-42
2022/03/22 09:10:14;;;;;;;43.70;26.95;;;;;;;22.34;35.64;103106.91;4949350;29;20031;-42
2022/03/22 09:12:41;;;;;;;42.17;26.83;;;;;;;21.57;35.99;103108.81;4948789;28;20540;-42
2022/03/22 09:15:06;;;;;;;52.53;27.75;;;;;;;21.26;36.07;103109.16;4949061;28;20077;-42
2022/03/22 09:17:32;;;;;;;45.53;26.73;;;;;;;20.89;37.37;103107.56;4949115;28;20035;-43
2022/03/22 09:19:57;;;;;;;44.80;28.00;;;;;;;21.36;36.70;103108.81;4931850;28;20028;-42
2022/03/22 09:22:22;;;;;;;45.50;25.30;;;;;;;22.70;34.58;103112.06;4947427;28;20039;-44
2022/03/22 09:24:48;;;;;;;43.92;26.08;;;;;;;22.34;34.55;103104.16;4949278;29;21032;-43
2022/03/22 09:27:13;;;;;;;43.20;26.30;;;;;;;21.71;35.41;103101.50;4950332;29;20039;-44
2022/03/22 09:29:38;;;;;;;45.13;26.40;;;;;;;21.68;35.49;103102.75;4948233;29;20043;-43
2022/03/22 09:32:04;;;;;;;43.03;26.58;;;;;;;21.38;35.56;103104.00;4949217;28;20093;-42
2022/03/22 09:34:32;;;;;;;40.58;25.25;;;;;;;21.30;36.02;103109.59;4947875;29;20549;-43
2022/03/22 09:36:58;;;;;;;53.28;28.60;;;;;;;20.50;37.78;103103.34;4949737;28;20036;-42
2022/03/22 09:39:24;;;;;;;43.60;25.58;;;;;;;21.35;35.85;103102.47;4947143;28;20118;-42
2022/03/22 09:41:50;;;;;;;42.90;25.90;;;;;;;21.12;36.19;103105.47;4940946;28;20589;-42
2022/03/22 09:44:18;;;;;;;49.70;27.55;;;;;;;21.27;36.21;103098.03;4946372;29;20039;-41
2022/03/22 09:46:48;;;;;;;40.65;25.25;;;;;;;21.55;35.67;103097.19;4950599;28;20035;-41
2022/03/22 09:49:15;;;;;;;46.15;26.15;;;;;;;21.53;36.09;103099.28;4953182;29;20019;-42
2022/03/22 09:51:45;;;;;;;44.63;25.55;;;;;;;21.54;36.39;103101.00;4953443;29;20030;-41
2022/03/22 09:54:18;;;;;;;44.42;25.98;;;;;;;22.60;33.80;103100.66;4950201;29;20034;-41
2022/03/22 09:56:45;;;;;;;45.00;24.70;;;;;;;22.00;33.48;103094.91;4951705;29;20039;-42
2022/03/22 09:59:11;;;;;;;46.63;26.33;;;;;;;21.43;35.63;103099.66;4945843;28;20046;-44
2022/03/22 10:01:37;;;;;;;46.38;24.95;;;;;;;21.95;35.22;103097.41;4951553;28;20031;-44
2022/03/22 10:04:07;;;;;;;47.95;26.67;;;;;;;21.32;36.26;103099.31;4946282;28;20077;-45
2022/03/22 10:06:33;;;;;;;44.17;25.50;;;;;;;21.92;35.41;103092.34;4948119;28;20039;-45
2022/03/22 10:08:58;;;;;;;45.67;24.35;;;;;;;21.67;35.43;103090.09;4947709;28;20019;-44
2022/03/22 10:11:38;;;;;;;47.78;27.23;;;;;;;22.43;34.71;103088.34;4948372;29;20032;-44
2022/03/22 10:14:04;;;;;;;47.75;23.75;;;;;;;22.12;33.60;103089.72;4948110;28;20081;-45
2022/03/22 10:16:30;;;;;;;43.90;22.80;;;;;;;22.96;32.34;103091.19;4948764;28;20510;-44
2022/03/22 10:18:55;;;;;;;50.72;26.55;;;;;;;22.59;33.51;103087.97;4948529;29;20031;-45
2022/03/22 10:21:21;;;;;;;50.78;27.10;;;;;;;21.77;34.90;103086.97;4948751;29;20386;-44
2022/03/22 10:23:51;;;;;;;51.40;27.48;;;;;;;21.93;35.67;103080.31;5011993;28;20331;-44
2022/03/22 10:26:17;;;;;;;46.35;26.90;;;;;;;22.04;35.02;103084.41;4948811;29;20027;-44
2022/03/22 10:28:51;;;;;;;45.42;27.27;;;;;;;21.84;34.74;103084.28;4948382;28;20062;-45
2022/03/22 10:31:17;;;;;;;50.78;25.58;;;;;;;21.88;34.24;103083.69;4948553;28;20051;-46
2022/03/22 10:33:52;;;;;;;52.15;25.20;;;;;;;22.00;35.10;103083.94;4948493;28;20097;-44
2022/03/22 10:36:21;;;;;;;38.90;23.67;;;;;;;22.32;34.16;103087.06;4946319;28;20028;-45
2022/03/22 10:38:59;;;;;;;42.72;23.67;;;;;;;22.44;34.25;103085.41;4975886;28;20039;-45
2022/03/22 10:41:29;;;;;;;33.83;20.48;;;;;;;21.73;33.23;103087.63;4946751;29;20184;-43
2022/03/22 10:44:15;;;;;;;41.80;21.05;;;;;;;22.07;33.18;103082.09;4949648;29;20073;-43
2022/03/22 10:46:44;;;;;;;42.35;23.13;;;;;;;22.12;33.45;103087.81;4948635;29;20031;-43
2022/03/22 10:49:12;;;;;;;41.83;21.88;;;;;;;21.21;34.88;103074.16;4950179;29;20428;-43
2022/03/22 10:51:43;;;;;;;42.15;21.17;;;;;;;21.21;35.31;103085.09;4950650;28;20032;-45
2022/03/22 10:54:15;;;;;;;46.97;22.30;;;;;;;21.03;36.11;103074.63;4939142;28;20050;-44
2022/03/22 10:56:49;;;;;;;40.42;21.73;;;;;;;21.80;34.53;103080.25;4948654;28;20118;-46
2022/03/22 10:59:16;;;;;;;41.42;22.48;;;;;;;21.99;33.31;103093.22;4940400;28;20543;-46
2022/03/22 11:01:45;;;;;;;;;;;;;;;21.13;35.21;103085.25;4950980;28;20035;-44
2022/03/22 11:04:12;;;;;;;38.90;20.05;;;;;;;21.08;33.92;103086.91;4950878;28;19915;-44
2022/03/22 11:06:38;;;;;;;37.47;19.90;;;;;;;21.52;33.92;103074.84;4951010;28;20123;-44
2022/03/22 11:09:04;;;;;;;45.70;21.80;;;;;;;21.02;35.00;103074.84;4950911;28;20035;-45
2022/03/22 11:11:31;;;;;;;36.90;21.38;;;;;;;20.78;36.13;103078.84;4945444;28;20693;-42
2022/03/22 11:13:57;;;;;;;39.72;22.25;;;;;;;21.53;33.97;103071.88;4950404;28;20382;-42
2022/03/22 11:16:24;;;;;;;42.08;21.83;;;;;;;21.58;33.85;103074.84;4951149;28;20050;-42
2022/03/22 11:18:50;;;;;;;40.33;20.73;;;;;;;23.06;31.87;103077.06;4951392;29;20474;-43
2022/03/22 11:21:18;;;;;;;36.15;20.23;;;;;;;23.20;31.54;103074.13;4949645;29;20027;-43
2022/03/22 11:23:44;;;;;;;35.28;20.95;;;;;;;22.81;30.82;103069.44;4949842;29;20054;-43
2022/03/22 11:26:16;;;;;;;38.83;19.67;;;;;;;23.15;30.62;103071.16;5037894;22;20033;-81
2022/03/22 11:28:42;;;;;;;35.35;19.23;;;;;;;23.27;29.74;103074.09;5075079;28;20047;-82
2022/03/22 11:31:11;;;;;;;38.50;18.63;;;;;;;22.76;30.50;103075.53;5075030;28;20017;-84
2022/03/22 11:36:26;;;;;;;37.70;19.23;;;;;;;22.91;29.93;103080.84;5079038;28;20043;-82
2022/03/22 11:38:54;;;;;;;31.02;18.35;;;;;;;23.02;30.86;103071.16;5088791;28;20031;-83